< < Back
Terminal Aerodrome Forecast


Current Version              Previous Versions:   1  2  3  4  5  6  7  8  9  

Terminal Aerodrome Forecast

091
FTUS42 KCAE 212300
TAFCAE
TAF
KCAE 212339Z 2200/2224 07008KT P6SM VCSH SCT030 OVC050
      TEMPO 2201/2203 5SM -RA BR BKN015 OVC030
     FM220300 05006KT P6SM VCSH OVC015
     FM220600 04008KT 5SM -RA BR OVC006
     FM221300 04006KT 4SM -DZ BR BKN005 OVC010=



Latest METAR

900
SAUS80 KWBC 220500 CCA
MTRCAE
METAR KCAE 220456Z 04005KT 4SM -RA BR OVC008 08/07 A3012 RMK AO2 CIG
005V013 SLP201 P0003 T00830067 401330067


USA.gov is the U.S. government's official web portal to all federal, state and local government web resources and services.